Terminal Aerodrome Forecast
Issued by NWS Charleston, WV

Current Version | Previous Version | Text Only | Print | Product List | Glossary Off
Versions: 1 2 3 4 5 6 7 8 9 10 11 12 13 14 15 16 17 18 19 20 21 22 23 24 25 26 27

832
FTUS41 KRLX 191314 AAB
TAFCRW
TAF AMD
KCRW 191314Z 1913/2012 29009G18KT P6SM OVC025
      TEMPO 1913/1915 BKN018
     FM191500 28012G19KT P6SM OVC025
     FM192000 28012G19KT P6SM BKN035
     FM200200 28010KT P6SM BKN035
     FM200400 26008KT P6SM SCT060=

USA.gov is the U.S. government's official web portal to all federal, state and local government web resources and services.